createdAt,value
2022-08-03T00:01:38.421Z,79.66
2022-08-03T00:04:06.882Z,80.54
2022-08-03T00:06:37.106Z,79.98
2022-08-03T00:09:07.974Z,80.00
2022-08-03T00:11:35.488Z,79.82
2022-08-03T00:14:03.287Z,80.19
2022-08-03T00:16:30.627Z,80.53
2022-08-03T00:18:57.885Z,80.63
2022-08-03T00:21:28.454Z,80.81
2022-08-03T00:23:55.640Z,80.41
2022-08-03T00:26:22.767Z,80.47
2022-08-03T00:28:50.949Z,80.66
2022-08-03T00:31:24.236Z,80.38
2022-08-03T00:34:05.984Z,80.56
2022-08-03T00:36:34.100Z,80.84
2022-08-03T00:39:01.580Z,80.99
2022-08-03T00:41:28.633Z,80.70
2022-08-03T00:43:55.662Z,80.89
2022-08-03T00:46:22.983Z,81.22
2022-08-03T00:48:50.803Z,81.12
2022-08-03T00:51:19.241Z,81.69
2022-08-03T00:53:46.458Z,82.56
2022-08-03T00:56:15.568Z,81.70
2022-08-03T00:58:45.423Z,81.59
2022-08-03T01:01:13.034Z,81.29
2022-08-03T01:03:41.068Z,81.16
2022-08-03T01:06:18.378Z,80.88
2022-08-03T01:08:57.543Z,81.43
2022-08-03T01:11:59.809Z,81.92
2022-08-03T01:14:39.550Z,81.11
2022-08-03T01:17:22.771Z,81.28
2022-08-03T01:19:49.819Z,81.22
2022-08-03T01:22:53.959Z,81.59
2022-08-03T01:25:57.981Z,81.82
2022-08-03T01:29:09.226Z,82.53
2022-08-03T01:32:53.251Z,81.74
2022-08-03T01:34:40.557Z,82.23
2022-08-03T01:37:10.408Z,82.66
2022-08-03T01:39:39.929Z,82.72
2022-08-03T01:42:10.623Z,82.95
2022-08-03T01:44:40.643Z,83.15
2022-08-03T01:47:08.864Z,83.07
2022-08-03T01:49:45.611Z,82.79
2022-08-03T01:52:14.974Z,82.90
2022-08-03T01:54:45.023Z,82.95
2022-08-03T01:57:13.573Z,82.42
2022-08-03T01:59:42.531Z,82.65
2022-08-03T02:02:32.813Z,82.65
2022-08-03T02:05:03.739Z,82.85
2022-08-03T02:07:32.768Z,82.45
2022-08-03T02:10:04.152Z,82.62
2022-08-03T02:12:37.981Z,83.18
2022-08-03T02:15:10.030Z,82.66
2022-08-03T02:17:40.311Z,83.06
2022-08-03T02:20:11.965Z,83.21
2022-08-03T02:22:43.522Z,83.10
2022-08-03T02:25:13.074Z,83.26
2022-08-03T02:27:44.375Z,82.70
2022-08-03T02:30:13.657Z,83.11
2022-08-03T02:32:42.980Z,83.06
2022-08-03T02:35:18.028Z,83.20
2022-08-03T02:37:49.928Z,83.56
2022-08-03T02:40:19.511Z,83.52
2022-08-03T02:42:50.200Z,83.19
2022-08-03T02:45:20.644Z,83.32
2022-08-03T02:47:53.994Z,83.24
2022-08-03T02:50:23.603Z,83.07
2022-08-03T02:52:52.555Z,82.99
2022-08-03T02:55:22.843Z,82.69
2022-08-03T02:57:51.422Z,83.75
2022-08-03T03:00:27.110Z,82.62
2022-08-03T03:02:58.726Z,82.85
2022-08-03T03:05:54.740Z,82.44
2022-08-03T03:08:28.849Z,82.49
2022-08-03T03:10:59.948Z,82.37
2022-08-03T03:13:29.286Z,83.03
2022-08-03T03:16:00.773Z,83.42
2022-08-03T03:18:35.235Z,82.60
2022-08-03T03:21:03.854Z,82.60
2022-08-03T03:23:32.353Z,82.76
2022-08-03T03:26:02.501Z,82.44
2022-08-03T03:28:30.798Z,82.46
2022-08-03T03:30:58.847Z,82.22
2022-08-03T03:33:28.238Z,82.94
2022-08-03T03:35:56.465Z,82.45
2022-08-03T03:38:23.440Z,82.50
2022-08-03T03:40:50.502Z,82.32
2022-08-03T03:43:19.001Z,82.41
2022-08-03T03:45:47.720Z,82.27
2022-08-03T03:48:15.275Z,82.89
2022-08-03T03:50:44.205Z,82.84
2022-08-03T03:53:12.202Z,83.19
2022-08-03T03:55:58.900Z,83.06
2022-08-03T03:58:27.396Z,82.31
2022-08-03T04:00:54.425Z,82.51
2022-08-03T04:03:21.373Z,82.82
2022-08-03T04:06:07.311Z,82.71
2022-08-03T04:08:52.949Z,83.08
2022-08-03T04:11:58.807Z,83.11
2022-08-03T04:14:35.605Z,83.44
2022-08-03T04:17:05.992Z,82.88
2022-08-03T04:19:45.443Z,82.96
2022-08-03T04:22:15.431Z,83.02
2022-08-03T04:24:49.864Z,83.10
2022-08-03T04:27:21.231Z,82.94
2022-08-03T04:29:52.224Z,83.37
2022-08-03T04:32:20.810Z,82.96
2022-08-03T04:34:48.098Z,82.32
2022-08-03T04:37:38.098Z,82.14
2022-08-03T04:40:09.627Z,82.23
2022-08-03T04:42:39.448Z,82.26
2022-08-03T04:45:08.515Z,82.16
2022-08-03T04:47:36.592Z,82.47
2022-08-03T04:50:09.144Z,82.63
2022-08-03T04:52:39.758Z,82.87
2022-08-03T04:55:07.222Z,82.82
2022-08-03T04:57:34.130Z,82.56
2022-08-03T05:00:03.628Z,82.14
2022-08-03T05:02:32.168Z,81.98
2022-08-03T05:05:00.110Z,82.46
2022-08-03T05:07:35.508Z,82.82
2022-08-03T05:10:15.147Z,83.13
2022-08-03T05:12:55.780Z,82.26
2022-08-03T05:15:22.795Z,82.47
2022-08-03T05:17:49.674Z,82.60
2022-08-03T05:20:16.684Z,83.20
2022-08-03T05:22:52.603Z,84.00
2022-08-03T05:25:22.245Z,83.78
2022-08-03T05:27:51.315Z,84.11
2022-08-03T05:30:29.722Z,84.07
2022-08-03T05:33:00.326Z,83.67
2022-08-03T05:36:01.319Z,83.64
2022-08-03T05:38:24.162Z,83.64
2022-08-03T05:41:22.066Z,83.09
2022-08-03T05:43:45.094Z,83.26
2022-08-03T05:46:13.166Z,83.38
2022-08-03T05:48:40.684Z,83.58
2022-08-03T05:51:07.925Z,83.30
2022-08-03T05:53:35.439Z,83.83
2022-08-03T05:56:13.211Z,83.70
2022-08-03T05:58:47.194Z,83.51
2022-08-03T06:01:15.703Z,83.73
2022-08-03T06:03:42.832Z,83.79
2022-08-03T06:06:09.911Z,83.87
2022-08-03T06:08:36.984Z,83.60
2022-08-03T06:11:04.376Z,83.38
2022-08-03T06:13:31.444Z,83.45
2022-08-03T06:15:58.501Z,83.43
2022-08-03T06:18:25.438Z,83.94
2022-08-03T06:20:53.090Z,83.49
2022-08-03T06:23:20.560Z,84.28
2022-08-03T06:25:47.884Z,84.71
2022-08-03T06:28:42.623Z,84.75
2022-08-03T06:31:02.761Z,84.72
2022-08-03T06:33:48.450Z,84.63
2022-08-03T06:36:16.775Z,84.37
2022-08-03T06:38:43.639Z,84.72
2022-08-03T06:41:10.504Z,84.57
2022-08-03T06:44:02.503Z,84.37
2022-08-03T06:46:24.679Z,84.83
2022-08-03T06:48:53.524Z,84.48
2022-08-03T06:51:20.420Z,85.43
2022-08-03T06:53:47.254Z,85.35
2022-08-03T06:56:14.087Z,85.05
2022-08-03T06:58:41.004Z,84.39
2022-08-03T07:01:07.863Z,83.92
2022-08-03T07:03:34.685Z,84.51
2022-08-03T07:06:02.537Z,84.23
2022-08-03T07:08:33.698Z,84.07
2022-08-03T07:11:01.398Z,83.90
2022-08-03T07:13:28.217Z,84.74
2022-08-03T07:15:56.310Z,83.95
2022-08-03T07:18:29.406Z,83.52
2022-08-03T07:20:57.054Z,83.24
2022-08-03T07:23:24.041Z,83.70
2022-08-03T07:25:51.096Z,83.64
2022-08-03T07:28:18.293Z,83.47
2022-08-03T07:30:45.220Z,83.47
2022-08-03T07:33:12.076Z,83.16
2022-08-03T07:35:39.439Z,83.21
2022-08-03T07:38:06.240Z,83.43
2022-08-03T07:40:33.082Z,83.53
2022-08-03T07:43:00.342Z,83.19
2022-08-03T07:45:27.193Z,82.69
2022-08-03T07:47:54.649Z,82.67
2022-08-03T07:50:22.659Z,82.59
2022-08-03T07:52:54.270Z,83.65
2022-08-03T07:55:23.284Z,83.02
2022-08-03T07:58:23.984Z,82.57
2022-08-03T08:00:53.316Z,81.87
2022-08-03T08:03:22.054Z,81.90
2022-08-03T08:05:49.600Z,82.23
2022-08-03T08:08:16.442Z,82.76
2022-08-03T08:10:58.279Z,82.20
2022-08-03T08:13:25.686Z,81.62
2022-08-03T08:15:52.460Z,81.17
2022-08-03T08:18:19.293Z,81.32
2022-08-03T08:20:46.387Z,81.24
2022-08-03T08:23:40.834Z,81.83
2022-08-03T08:25:59.935Z,81.76
2022-08-03T08:28:30.237Z,80.88
2022-08-03T08:31:00.511Z,81.37
2022-08-03T08:33:37.335Z,80.87
2022-08-03T08:36:15.594Z,81.35
2022-08-03T08:38:44.736Z,81.35
2022-08-03T08:41:13.106Z,80.90
2022-08-03T08:43:40.101Z,80.88
2022-08-03T08:46:08.679Z,80.87
2022-08-03T08:48:40.822Z,81.56
2022-08-03T08:51:09.829Z,80.94
2022-08-03T08:53:38.583Z,80.77
2022-08-03T08:56:07.529Z,80.72
2022-08-03T08:58:38.645Z,80.55
2022-08-03T09:01:06.199Z,80.90
2022-08-03T09:03:34.537Z,80.61
2022-08-03T09:06:02.477Z,80.34
2022-08-03T09:08:30.891Z,80.26
2022-08-03T09:10:58.435Z,80.13
2022-08-03T09:13:25.526Z,79.90
2022-08-03T09:16:12.327Z,80.67
2022-08-03T09:18:39.886Z,79.94
2022-08-03T09:21:31.259Z,79.64
2022-08-03T09:24:02.790Z,79.46
2022-08-03T09:26:31.792Z,79.11
2022-08-03T09:29:07.121Z,78.68
2022-08-03T09:31:44.184Z,79.26
2022-08-03T09:34:13.919Z,78.86
2022-08-03T09:36:51.713Z,78.58
2022-08-03T09:39:37.481Z,78.35
2022-08-03T09:42:09.772Z,78.55
2022-08-03T09:44:39.066Z,78.50
2022-08-03T09:47:06.668Z,78.92
2022-08-03T09:49:33.623Z,78.96
2022-08-03T09:52:38.179Z,78.60
2022-08-03T09:55:08.036Z,78.80
2022-08-03T09:58:10.799Z,78.58
2022-08-03T10:01:24.154Z,78.01
2022-08-03T10:04:03.803Z,78.16
2022-08-03T10:06:31.611Z,78.19
2022-08-03T10:09:16.309Z,78.23
2022-08-03T10:11:44.761Z,77.84
2022-08-03T10:14:19.612Z,78.12
2022-08-03T10:16:47.940Z,78.28
2022-08-03T10:19:15.830Z,77.93
2022-08-03T10:21:49.718Z,78.26
2022-08-03T10:24:21.302Z,77.80
2022-08-03T10:26:50.374Z,77.64
2022-08-03T10:29:25.395Z,77.96
2022-08-03T10:31:58.156Z,77.47
2022-08-03T10:34:29.383Z,77.55
2022-08-03T10:37:00.311Z,77.32
2022-08-03T10:39:30.923Z,77.68
2022-08-03T10:41:59.935Z,77.04
2022-08-03T10:44:36.441Z,76.36
2022-08-03T10:47:05.163Z,76.49
2022-08-03T10:49:34.596Z,76.42
2022-08-03T10:52:13.331Z,76.48
2022-08-03T10:55:10.878Z,76.13
2022-08-03T10:57:58.860Z,76.24
2022-08-03T11:00:28.656Z,75.59
2022-08-03T11:03:03.367Z,75.54
2022-08-03T11:05:35.992Z,75.85
2022-08-03T11:08:35.061Z,76.00
2022-08-03T11:11:17.264Z,75.54
2022-08-03T11:14:08.271Z,75.12
2022-08-03T11:16:37.390Z,74.75
2022-08-03T11:19:07.829Z,74.83
2022-08-03T11:21:52.890Z,74.78
2022-08-03T11:24:39.408Z,74.24
2022-08-03T11:27:15.771Z,73.85
2022-08-03T11:29:57.692Z,73.69
2022-08-03T11:33:00.281Z,74.09
2022-08-03T11:35:33.823Z,74.09
2022-08-03T11:38:04.817Z,73.63
2022-08-03T11:40:48.590Z,73.29
2022-08-03T11:43:31.281Z,73.82
2022-08-03T11:46:13.851Z,73.20
2022-08-03T11:49:09.499Z,73.79
2022-08-03T11:51:38.932Z,73.92
2022-08-03T11:54:07.021Z,74.21
2022-08-03T11:56:48.839Z,73.84
2022-08-03T11:59:21.875Z,73.32
2022-08-03T12:01:50.099Z,73.43
2022-08-03T12:04:16.918Z,73.28
2022-08-03T12:06:59.464Z,73.08
2022-08-03T12:09:26.269Z,72.32
2022-08-03T12:11:58.438Z,72.58
2022-08-03T12:14:48.519Z,71.90
2022-08-03T12:17:16.745Z,72.35
2022-08-03T12:19:44.127Z,72.53
2022-08-03T12:22:10.919Z,71.98
2022-08-03T12:24:42.892Z,72.30
2022-08-03T12:27:09.755Z,71.60
2022-08-03T12:29:37.599Z,71.14
2022-08-03T12:32:04.728Z,71.60
2022-08-03T12:34:50.619Z,71.33
2022-08-03T12:37:23.866Z,71.30
2022-08-03T12:40:02.698Z,71.35
2022-08-03T12:42:37.801Z,70.49
2022-08-03T12:45:25.235Z,69.98
2022-08-03T12:48:02.150Z,69.48
2022-08-03T12:50:34.831Z,69.33
2022-08-03T12:53:08.016Z,69.26
2022-08-03T12:55:57.154Z,68.78
2022-08-03T12:58:35.243Z,68.09
2022-08-03T13:01:09.457Z,67.64
2022-08-03T13:03:50.031Z,67.74
2022-08-03T13:06:22.564Z,67.81
2022-08-03T13:08:51.519Z,67.64
2022-08-03T13:11:23.526Z,67.55
2022-08-03T13:14:16.744Z,67.57
2022-08-03T13:16:46.849Z,67.66
2022-08-03T13:19:15.900Z,67.76
2022-08-03T13:21:53.739Z,67.78
2022-08-03T13:24:31.467Z,67.86
2022-08-03T13:26:59.473Z,68.19
2022-08-03T13:29:26.361Z,67.75
2022-08-03T13:31:53.269Z,67.29
2022-08-03T13:34:23.470Z,67.19
2022-08-03T13:37:11.398Z,67.91
2022-08-03T13:39:58.130Z,67.64
2022-08-03T13:42:28.076Z,67.85
2022-08-03T13:44:56.050Z,67.88
2022-08-03T13:47:23.120Z,67.77
2022-08-03T13:49:59.803Z,68.05
2022-08-03T13:52:33.123Z,67.15
2022-08-03T13:55:01.054Z,66.83
2022-08-03T13:58:03.233Z,67.25
2022-08-03T14:00:28.141Z,66.31
2022-08-03T14:03:13.683Z,66.73
2022-08-03T14:05:41.998Z,66.62
2022-08-03T14:08:09.284Z,65.96
2022-08-03T14:10:38.338Z,65.56
2022-08-03T14:13:05.928Z,66.10
2022-08-03T14:15:37.599Z,65.01
2022-08-03T14:18:06.928Z,65.18
2022-08-03T14:20:38.649Z,65.01
2022-08-03T14:23:14.385Z,65.29
2022-08-03T14:25:49.918Z,65.78
2022-08-03T14:28:18.607Z,65.09
2022-08-03T14:30:45.914Z,64.83
2022-08-03T14:33:12.716Z,64.73
2022-08-03T14:35:39.765Z,64.79
2022-08-03T14:38:06.740Z,64.95
2022-08-03T14:40:33.759Z,64.84
2022-08-03T14:43:04.223Z,64.69
2022-08-03T14:45:31.319Z,64.34
2022-08-03T14:50:27.867Z,64.12
2022-08-03T14:50:51.504Z,64.46
2022-08-03T14:53:19.834Z,63.88
2022-08-03T14:55:50.520Z,64.04
2022-08-03T14:58:22.712Z,63.95
2022-08-03T15:00:51.314Z,63.32
2022-08-03T15:03:25.907Z,63.35
2022-08-03T15:05:53.881Z,63.98
2022-08-03T15:08:21.660Z,63.49
2022-08-03T15:10:49.525Z,64.04
2022-08-03T15:13:17.141Z,63.78
2022-08-03T15:15:44.071Z,64.25
2022-08-03T15:18:11.371Z,63.50
2022-08-03T15:20:46.999Z,63.76
2022-08-03T15:23:15.960Z,64.40
2022-08-03T15:26:29.395Z,64.40
2022-08-03T15:28:31.188Z,64.37
2022-08-03T15:30:58.042Z,64.36
2022-08-03T15:33:25.603Z,64.14
2022-08-03T15:35:53.351Z,63.61
2022-08-03T15:38:26.265Z,63.75
2022-08-03T15:40:59.206Z,63.87
2022-08-03T15:43:26.261Z,63.55
2022-08-03T15:48:41.045Z,64.33
2022-08-03T15:51:08.512Z,64.29
2022-08-03T15:53:35.857Z,64.45
2022-08-03T15:56:10.660Z,64.18
2022-08-03T15:59:04.552Z,63.65
2022-08-03T16:01:28.042Z,63.92
2022-08-03T16:03:55.335Z,63.84
2022-08-03T16:06:34.634Z,64.46
2022-08-03T16:09:03.358Z,63.35
2022-08-03T16:11:30.741Z,63.98
2022-08-03T16:14:12.963Z,63.71
2022-08-03T16:16:44.385Z,64.07
2022-08-03T16:19:11.317Z,64.22
2022-08-03T16:21:40.310Z,64.54
2022-08-03T16:24:17.558Z,64.61
2022-08-03T16:26:54.909Z,64.36
2022-08-03T16:29:22.675Z,64.25
2022-08-03T16:31:50.850Z,64.21
2022-08-03T16:34:18.423Z,64.79
2022-08-03T16:36:45.991Z,65.35
2022-08-03T16:39:12.947Z,65.14
2022-08-03T16:42:00.642Z,65.56
2022-08-03T16:44:27.520Z,66.04
2022-08-03T16:46:55.274Z,65.86
2022-08-03T16:49:54.806Z,65.57
2022-08-03T16:52:09.163Z,65.98
2022-08-03T16:54:39.751Z,65.28
2022-08-03T16:57:07.558Z,65.34
2022-08-03T16:59:36.377Z,66.18
2022-08-03T17:02:12.696Z,66.72
2022-08-03T17:04:40.192Z,65.77
2022-08-03T17:07:08.855Z,66.17
2022-08-03T17:09:38.632Z,66.28
2022-08-03T17:12:07.217Z,66.23
2022-08-03T17:14:34.066Z,66.79
2022-08-03T17:17:03.948Z,67.15
2022-08-03T17:19:32.625Z,67.32
2022-08-03T17:22:09.241Z,66.90
2022-08-03T17:24:42.257Z,66.87
2022-08-03T17:28:41.969Z,66.88
2022-08-03T17:30:08.466Z,66.72
2022-08-03T17:32:42.244Z,66.37
2022-08-03T17:35:10.366Z,67.03
2022-08-03T17:37:57.405Z,66.35
2022-08-03T17:40:24.678Z,67.05
2022-08-03T17:42:55.485Z,66.38
2022-08-03T17:45:22.414Z,66.37
2022-08-03T17:47:57.068Z,65.90
2022-08-03T17:50:33.458Z,65.58
2022-08-03T17:53:07.682Z,65.51
2022-08-03T17:55:57.092Z,66.17
2022-08-03T17:58:53.819Z,66.48
2022-08-03T18:02:08.935Z,66.32
2022-08-03T18:04:55.478Z,66.34
2022-08-03T18:07:41.243Z,66.19
2022-08-03T18:10:11.470Z,66.04
2022-08-03T18:13:19.314Z,66.61
2022-08-03T18:15:59.374Z,66.19
2022-08-03T18:18:38.643Z,66.21
2022-08-03T18:21:09.346Z,66.52
2022-08-03T18:23:45.003Z,66.38
2022-08-03T18:26:17.084Z,66.67
2022-08-03T18:28:45.141Z,67.36
2022-08-03T18:31:33.148Z,67.36
2022-08-03T18:34:16.432Z,67.82
2022-08-03T18:36:52.728Z,67.62
2022-08-03T18:39:22.962Z,67.39
2022-08-03T18:41:49.756Z,67.54
2022-08-03T18:44:37.622Z,68.29
2022-08-03T18:47:27.977Z,67.86
2022-08-03T18:50:31.018Z,68.16
2022-08-03T18:54:02.910Z,68.99
2022-08-03T18:56:20.762Z,69.45
2022-08-03T19:02:00.004Z,69.43
2022-08-03T19:04:34.128Z,69.26
2022-08-03T19:07:11.103Z,69.24
2022-08-03T19:09:48.431Z,69.34
2022-08-03T19:12:33.832Z,69.86
2022-08-03T19:15:12.505Z,70.10
2022-08-03T19:20:35.119Z,70.00
2022-08-03T19:23:02.116Z,69.71
2022-08-03T19:25:35.349Z,69.84
2022-08-03T19:28:05.850Z,70.21
2022-08-03T19:30:40.225Z,70.52
2022-08-03T19:33:11.031Z,71.26
2022-08-03T19:35:55.129Z,70.75
2022-08-03T19:38:29.254Z,71.00
2022-08-03T19:41:04.213Z,71.26
2022-08-03T19:43:53.933Z,70.98
2022-08-03T19:46:30.833Z,71.54
2022-08-03T19:49:14.999Z,72.14
2022-08-03T19:51:58.561Z,72.36
2022-08-03T19:54:53.149Z,71.14
2022-08-03T19:57:27.523Z,72.07
2022-08-03T19:59:56.234Z,71.58
2022-08-03T20:02:26.695Z,71.56
2022-08-03T20:04:57.670Z,71.93
2022-08-03T20:07:27.421Z,71.79
2022-08-03T20:09:56.676Z,72.23
2022-08-03T20:12:52.572Z,72.35
2022-08-03T20:15:31.229Z,72.21
2022-08-03T20:17:59.485Z,71.90
2022-08-03T20:20:33.985Z,72.22
2022-08-03T20:23:06.822Z,72.85
2022-08-03T20:25:48.847Z,72.23
2022-08-03T20:28:29.257Z,71.44
2022-08-03T20:30:56.747Z,70.78
2022-08-03T20:33:27.919Z,71.14
2022-08-03T20:36:10.585Z,71.32
2022-08-03T20:38:43.746Z,70.63
2022-08-03T20:41:14.481Z,70.41
2022-08-03T20:43:42.039Z,70.59
2022-08-03T20:46:32.056Z,70.94
2022-08-03T20:48:58.998Z,70.44
2022-08-03T20:51:49.793Z,71.23
2022-08-03T20:54:20.891Z,70.73
2022-08-03T20:56:58.123Z,70.97
2022-08-03T20:59:30.470Z,71.41
2022-08-03T21:02:00.440Z,71.77
2022-08-03T21:04:28.846Z,72.53
2022-08-03T21:07:02.694Z,72.06
2022-08-03T21:09:53.113Z,72.07
2022-08-03T21:12:53.361Z,71.18
2022-08-03T21:13:00.963Z,69.07
2022-08-03T21:13:11.012Z,70.38
2022-08-03T21:16:03.196Z,71.65
2022-08-03T21:18:28.153Z,72.17
2022-08-03T21:20:57.059Z,72.63
2022-08-03T21:23:39.744Z,72.28
2022-08-03T21:26:13.166Z,73.33
2022-08-03T21:28:40.352Z,72.84
2022-08-03T21:31:08.105Z,72.79
2022-08-03T21:33:35.941Z,72.78
2022-08-03T21:36:02.840Z,72.98
2022-08-03T21:38:30.862Z,72.67
2022-08-03T21:40:57.660Z,72.78
2022-08-03T21:43:24.806Z,72.94
2022-08-03T21:46:05.863Z,73.67
2022-08-03T21:48:41.128Z,73.46
2022-08-03T21:51:09.625Z,73.48
2022-08-03T21:54:02.475Z,73.71
2022-08-03T21:56:28.120Z,73.27
2022-08-03T21:59:00.070Z,73.58
2022-08-03T22:01:28.663Z,74.39
2022-08-03T22:04:05.582Z,74.53
2022-08-03T22:06:34.770Z,75.23
2022-08-03T22:09:01.766Z,75.58
2022-08-03T22:11:28.709Z,74.51
2022-08-03T22:13:55.499Z,74.10
2022-08-03T22:16:22.338Z,74.24
2022-08-03T22:18:49.286Z,74.17
2022-08-03T22:21:17.181Z,75.03
2022-08-03T22:23:58.627Z,74.93
2022-08-03T22:26:34.720Z,75.07
2022-08-03T22:29:06.844Z,74.73
2022-08-03T22:31:58.044Z,73.64
2022-08-03T22:34:26.521Z,73.42
2022-08-03T22:36:57.311Z,72.00
2022-08-03T22:39:29.068Z,70.74
2022-08-03T22:41:59.164Z,70.51
2022-08-03T22:44:27.446Z,71.31
2022-08-03T22:46:55.624Z,71.98
2022-08-03T22:49:22.926Z,71.31
2022-08-03T22:51:52.299Z,70.97
2022-08-03T22:54:19.239Z,71.24
2022-08-03T22:56:50.657Z,69.74
2022-08-03T22:59:40.633Z,69.07
2022-08-03T23:02:20.420Z,68.65
2022-08-03T23:04:55.113Z,67.74
2022-08-03T23:07:30.082Z,67.17
2022-08-03T23:09:58.061Z,66.74
2022-08-03T23:12:25.638Z,66.14
2022-08-03T23:14:56.138Z,66.70
2022-08-03T23:17:24.445Z,66.18
2022-08-03T23:19:53.797Z,66.38
2022-08-03T23:22:30.033Z,65.05
2022-08-03T23:24:59.153Z,64.23
2022-08-03T23:27:28.007Z,64.31
2022-08-03T23:29:57.701Z,63.81
2022-08-03T23:32:29.814Z,63.67
2022-08-03T23:35:18.368Z,62.69
2022-08-03T23:38:04.257Z,63.46
2022-08-03T23:40:34.082Z,62.96
2022-08-03T23:43:02.969Z,62.83
2022-08-03T23:45:34.830Z,61.14
2022-08-03T23:48:01.655Z,61.22
2022-08-03T23:50:35.139Z,61.67
2022-08-03T23:53:23.616Z,62.02
2022-08-03T23:56:10.267Z,61.88
2022-08-03T23:59:06.980Z,62.09
